Time;durP1;ratioP1;P1;durP2;ratioP2;P2;SDS_P1;SDS_P2;PMS_P1;PMS_P2;Temp;Humidity;BMP_temperature;BMP_pressure;BME280_temperature;BME280_humidity;BME280_pressure;Samples;Min_cycle;Max_cycle;Signal;HPM_P1;HPM_P2
2023/10/04 00:01:15;;;;;;;5.37;2.13;;;8.40;99.90;;;;;;4972017;28;20186;-65
2023/10/04 00:03:41;;;;;;;10.97;2.33;;;8.30;99.90;;;;;;4972144;28;20225;-65
2023/10/04 00:06:08;;;;;;;7.73;2.50;;;8.30;99.90;;;;;;4971753;28;20205;-65
2023/10/04 00:08:33;;;;;;;4.27;2.17;;;8.30;99.90;;;;;;4971421;28;20256;-65
2023/10/04 00:11:01;;;;;;;5.23;2.40;;;8.20;99.90;;;;;;4979872;28;20213;-65
2023/10/04 00:13:26;;;;;;;8.43;2.43;;;8.20;99.90;;;;;;4971885;28;20264;-65
2023/10/04 00:15:52;;;;;;;6.43;2.43;;;8.20;99.90;;;;;;4971763;28;20336;-66
2023/10/04 00:18:18;;;;;;;8.93;2.07;;;8.10;99.90;;;;;;4971724;28;20307;-65
2023/10/04 00:20:44;;;;;;;5.53;2.50;;;8.10;99.90;;;;;;4971403;28;20197;-65
2023/10/04 00:23:10;;;;;;;10.60;2.50;;;8.00;99.90;;;;;;4971404;28;20186;-65
2023/10/04 00:25:37;;;;;;;6.77;2.50;;;8.00;99.90;;;;;;4971737;28;20213;-65
2023/10/04 00:28:04;;;;;;;8.33;2.87;;;8.00;99.90;;;;;;4971420;28;20186;-65
2023/10/04 00:30:30;;;;;;;8.93;2.57;;;7.90;99.90;;;;;;4971836;28;20186;-64
2023/10/04 00:32:57;;;;;;;8.63;2.67;;;8.00;99.90;;;;;;4970949;28;20225;-64
2023/10/04 00:35:25;;;;;;;10.67;2.43;;;8.00;99.90;;;;;;4967117;28;20206;-64
2023/10/04 00:38:00;;;;;;;6.10;2.37;;;8.00;99.90;;;;;;4968713;28;20217;-65
2023/10/04 00:40:28;;;;;;;9.33;2.23;;;7.90;99.90;;;;;;4971211;28;20208;-64
2023/10/04 00:42:56;;;;;;;6.97;2.50;;;7.90;99.90;;;;;;4971261;28;20221;-65
2023/10/04 00:45:22;;;;;;;8.97;2.70;;;7.90;99.90;;;;;;4971308;28;20230;-64
2023/10/04 00:47:51;;;;;;;4.57;2.20;;;7.90;99.90;;;;;;4971029;28;20655;-63
2023/10/04 00:50:34;;;;;;;6.47;2.50;;;7.80;99.90;;;;;;4970641;28;20591;-64
2023/10/04 00:53:09;;;;;;;5.03;2.20;;;7.80;99.90;;;;;;4971418;28;20189;-65
2023/10/04 00:55:40;;;;;;;7.23;2.90;;;7.70;99.90;;;;;;4971454;28;20200;-63
2023/10/04 00:58:07;;;;;;;6.77;2.10;;;7.80;99.90;;;;;;4970744;28;20205;-67
2023/10/04 01:00:34;;;;;;;9.07;2.47;;;7.70;99.90;;;;;;4970971;28;20182;-64
2023/10/04 01:02:59;;;;;;;4.47;2.13;;;7.70;99.90;;;;;;4971044;28;20560;-65
2023/10/04 01:05:27;;;;;;;7.20;2.43;;;7.60;99.90;;;;;;4971282;28;20205;-64
2023/10/04 01:07:57;;;;;;;6.70;2.07;;;7.60;99.90;;;;;;4970841;28;20236;-64
2023/10/04 01:10:34;;;;;;;6.80;2.50;;;7.60;99.90;;;;;;4966327;28;20281;-64
2023/10/04 01:13:05;;;;;;;4.90;2.10;;;7.60;99.90;;;;;;4969453;28;20181;-64
2023/10/04 01:15:36;;;;;;;5.67;2.37;;;7.50;99.90;;;;;;4970923;28;20297;-65
2023/10/04 01:18:04;;;;;;;26.50;2.77;;;7.50;99.90;;;;;;4970886;28;20213;-63
2023/10/04 01:20:33;;;;;;;8.33;2.07;;;7.50;99.90;;;;;;4970846;28;20178;-65
2023/10/04 01:23:01;;;;;;;3.33;1.87;;;7.50;99.90;;;;;;4970994;28;20222;-63
2023/10/04 01:25:34;;;;;;;4.27;2.20;;;7.50;99.90;;;;;;4969885;28;20225;-64
2023/10/04 01:28:06;;;;;;;7.17;2.40;;;7.50;99.90;;;;;;4970560;28;20190;-65
2023/10/04 01:30:32;;;;;;;5.63;2.20;;;7.50;99.90;;;;;;4970712;28;20228;-65
2023/10/04 01:33:01;;;;;;;5.27;2.40;;;7.40;99.90;;;;;;4970890;28;20213;-63
2023/10/04 01:35:29;;;;;;;5.83;1.83;;;7.50;99.90;;;;;;4970995;28;20312;-64
2023/10/04 01:37:54;;;;;;;6.10;2.10;;;7.40;99.90;;;;;;4970763;28;20296;-63
2023/10/04 01:40:31;;;;;;;6.67;2.37;;;7.50;99.90;;;;;;4970640;28;20196;-64
2023/10/04 01:42:57;;;;;;;6.00;2.00;;;7.50;99.90;;;;;;4970713;28;20182;-64
2023/10/04 01:45:23;;;;;;;6.13;2.10;;;7.50;99.90;;;;;;4972185;28;20324;-63
2023/10/04 01:47:50;;;;;;;4.07;1.90;;;7.50;99.90;;;;;;4969900;28;20261;-64
2023/10/04 01:50:16;;;;;;;5.30;2.50;;;7.50;99.90;;;;;;4974046;28;20209;-65
2023/10/04 01:52:48;;;;;;;4.53;1.80;;;7.50;99.90;;;;;;4974247;28;20186;-64
2023/10/04 01:55:16;;;;;;;6.50;2.10;;;7.50;99.90;;;;;;4978057;28;20224;-64
2023/10/04 01:57:43;;;;;;;5.57;2.03;;;7.60;99.90;;;;;;4978300;28;20296;-64
2023/10/04 02:00:10;;;;;;;4.77;2.40;;;7.60;99.90;;;;;;4973866;28;20182;-65
2023/10/04 02:02:39;;;;;;;5.97;1.90;;;7.60;99.90;;;;;;4974247;28;20182;-63
2023/10/04 02:05:17;;;;;;;4.47;2.33;;;7.70;99.90;;;;;;4973944;28;20586;-64
2023/10/04 02:07:46;;;;;;;3.40;1.97;;;7.70;99.90;;;;;;4974034;28;20536;-65
2023/10/04 02:10:13;;;;;;;4.50;2.13;;;7.80;99.90;;;;;;4973907;28;20193;-64
2023/10/04 02:12:39;;;;;;;5.33;2.47;;;7.80;99.90;;;;;;4974040;28;20174;-64
2023/10/04 02:15:09;;;;;;;7.40;2.70;;;7.70;99.90;;;;;;4973936;28;20229;-66
2023/10/04 02:17:35;;;;;;;4.20;2.23;;;7.70;99.90;;;;;;4973912;28;20236;-65
2023/10/04 02:20:09;;;;;;;6.53;2.30;;;7.80;99.90;;;;;;4973406;28;20630;-66
2023/10/04 02:22:34;;;;;;;7.10;2.03;;;7.80;99.90;;;;;;4973361;28;20235;-64
2023/10/04 02:25:00;;;;;;;5.43;1.90;;;7.90;99.90;;;;;;4973879;28;20209;-64
2023/10/04 02:27:27;;;;;;;3.37;1.93;;;7.90;99.90;;;;;;4973662;28;20193;-63
2023/10/04 02:29:53;;;;;;;4.73;2.30;;;7.90;99.90;;;;;;4973234;28;20210;-63
2023/10/04 02:32:20;;;;;;;6.23;2.20;;;7.90;99.90;;;;;;4969231;28;20190;-63
2023/10/04 02:34:46;;;;;;;8.23;2.30;;;7.90;99.90;;;;;;4970061;28;20217;-64
2023/10/04 02:37:12;;;;;;;7.47;2.70;;;7.90;99.90;;;;;;4973152;28;20220;-64
2023/10/04 02:39:37;;;;;;;5.17;2.03;;;7.90;99.90;;;;;;4973182;28;20189;-66
2023/10/04 02:42:09;;;;;;;5.20;2.17;;;8.00;99.90;;;;;;4973408;28;20190;-65
2023/10/04 02:44:36;;;;;;;6.53;2.70;;;8.00;99.90;;;;;;4973380;28;20224;-64
2023/10/04 02:47:06;;;;;;;11.50;2.60;;;8.00;99.90;;;;;;4972911;28;20190;-64
2023/10/04 02:49:37;;;;;;;6.97;2.13;;;8.10;99.90;;;;;;4972812;28;20539;-64
2023/10/04 02:52:07;;;;;;;5.73;2.37;;;8.20;99.90;;;;;;4973348;28;20197;-63
2023/10/04 02:54:33;;;;;;;4.70;2.40;;;8.30;99.90;;;;;;4973693;28;20208;-63
2023/10/04 02:57:00;;;;;;;6.63;2.63;;;8.30;99.90;;;;;;4971962;28;20209;-65
2023/10/04 02:59:27;;;;;;;5.10;2.60;;;8.40;99.90;;;;;;4972603;28;20178;-65
2023/10/04 03:01:53;;;;;;;4.23;2.10;;;8.50;99.90;;;;;;4972983;28;20709;-64
2023/10/04 03:04:20;;;;;;;7.17;2.43;;;8.50;99.90;;;;;;4973151;28;20205;-64
2023/10/04 03:06:46;;;;;;;6.63;2.40;;;8.50;99.90;;;;;;4972783;28;20721;-63
2023/10/04 03:09:12;;;;;;;4.23;2.40;;;8.60;99.90;;;;;;4972451;28;20281;-63
2023/10/04 03:11:41;;;;;;;9.33;2.80;;;8.70;99.90;;;;;;4972981;28;20778;-64
2023/10/04 03:14:07;;;;;;;7.03;2.60;;;8.70;99.90;;;;;;4972524;28;20209;-64
2023/10/04 03:16:34;;;;;;;6.43;2.80;;;8.70;99.90;;;;;;4973055;28;20190;-64
2023/10/04 03:19:00;;;;;;;5.03;2.40;;;8.80;99.90;;;;;;4972240;28;20249;-64
2023/10/04 03:21:30;;;;;;;5.60;2.60;;;8.80;99.90;;;;;;4972923;28;20182;-65
2023/10/04 03:23:58;;;;;;;8.40;2.47;;;8.80;99.90;;;;;;4972527;28;20249;-65
2023/10/04 03:26:24;;;;;;;8.37;2.83;;;8.80;99.90;;;;;;4977529;28;20188;-65
2023/10/04 03:28:50;;;;;;;6.50;2.87;;;8.90;99.90;;;;;;4975017;28;20217;-64
2023/10/04 03:31:17;;;;;;;4.90;2.40;;;8.90;99.90;;;;;;4972677;28;20221;-63
2023/10/04 03:33:48;;;;;;;5.03;2.70;;;8.90;99.90;;;;;;4972581;28;20677;-65
2023/10/04 03:36:21;;;;;;;9.90;3.40;;;9.00;99.90;;;;;;4972583;28;20178;-65
2023/10/04 03:38:49;;;;;;;9.07;3.47;;;9.00;99.90;;;;;;4979892;28;20177;-64
2023/10/04 03:41:16;;;;;;;11.40;3.60;;;9.00;99.90;;;;;;4972475;28;20181;-64
2023/10/04 03:43:42;;;;;;;5.53;3.13;;;9.00;99.90;;;;;;4972522;28;20259;-64
2023/10/04 03:46:17;;;;;;;9.30;3.43;;;9.10;99.90;;;;;;4972443;28;20606;-65
2023/10/04 03:48:47;;;;;;;10.13;3.40;;;9.10;99.90;;;;;;4971831;28;20193;-65
2023/10/04 03:51:13;;;;;;;10.80;3.70;;;9.20;99.90;;;;;;4971992;28;20276;-65
2023/10/04 03:53:42;;;;;;;11.10;3.50;;;9.20;99.90;;;;;;4980346;28;20198;-65
2023/10/04 03:56:10;;;;;;;7.53;3.13;;;9.30;99.90;;;;;;4971955;28;20202;-65
2023/10/04 03:58:36;;;;;;;13.27;4.10;;;9.30;99.90;;;;;;4971723;28;20206;-65
2023/10/04 04:01:02;;;;;;;11.03;3.90;;;9.30;99.90;;;;;;4971879;28;20285;-64
2023/10/04 04:03:29;;;;;;;7.60;3.60;;;9.40;99.90;;;;;;4972010;28;20174;-64
2023/10/04 04:05:55;;;;;;;10.93;3.63;;;9.50;99.90;;;;;;4971931;28;20197;-65
2023/10/04 04:08:21;;;;;;;8.80;3.63;;;9.50;99.90;;;;;;4971585;28;20193;-64
2023/10/04 04:10:47;;;;;;;8.27;3.77;;;9.50;99.90;;;;;;4970191;28;20348;-64
2023/10/04 04:13:13;;;;;;;13.03;3.60;;;9.50;99.90;;;;;;4971547;28;20336;-63
2023/10/04 04:15:41;;;;;;;12.67;3.63;;;9.50;99.90;;;;;;4971959;28;20232;-64
2023/10/04 04:18:25;;;;;;;6.57;3.13;;;9.50;99.90;;;;;;4971592;28;20627;-64
2023/10/04 04:20:53;;;;;;;8.27;3.13;;;9.50;99.90;;;;;;4972017;28;20665;-65
2023/10/04 04:23:19;;;;;;;9.37;3.40;;;9.60;99.90;;;;;;4979258;28;20197;-65
2023/10/04 04:25:47;;;;;;;10.00;3.70;;;9.60;99.90;;;;;;4971722;28;20194;-65
2023/10/04 04:28:14;;;;;;;12.40;3.50;;;9.60;99.90;;;;;;4971263;28;20185;-64
2023/10/04 04:30:40;;;;;;;7.90;3.40;;;9.60;99.90;;;;;;4971287;28;20198;-65
2023/10/04 04:33:07;;;;;;;13.27;3.40;;;9.70;99.90;;;;;;4971498;28;20602;-65
2023/10/04 04:38:17;;;;;;;9.83;3.80;;;9.80;99.90;;;;;;4972684;28;20217;-65
2023/10/04 04:40:46;;;;;;;11.63;3.83;;;9.80;99.90;;;;;;4970966;28;20692;-64
2023/10/04 04:43:25;;;;;;;6.83;3.50;;;9.80;99.90;;;;;;4970120;28;20269;-65
2023/10/04 04:45:56;;;;;;;9.63;3.40;;;9.90;99.90;;;;;;4971287;28;20625;-64
2023/10/04 04:48:23;;;;;;;11.13;3.03;;;9.90;99.90;;;;;;4971313;28;20598;-66
2023/10/04 04:50:54;;;;;;;9.57;3.60;;;10.00;99.90;;;;;;4971405;28;20182;-64
2023/10/04 04:53:22;;;;;;;7.27;2.80;;;10.00;99.90;;;;;;4971436;28;20273;-65
2023/10/04 04:55:50;;;;;;;7.77;2.90;;;10.00;99.90;;;;;;4971433;28;20594;-66
2023/10/04 04:58:20;;;;;;;6.60;3.23;;;10.10;99.90;;;;;;4970750;28;20576;-65
2023/10/04 05:00:50;;;;;;;8.07;3.20;;;10.10;99.90;;;;;;4970953;28;20664;-64
2023/10/04 05:03:16;;;;;;;9.73;3.43;;;10.10;99.90;;;;;;4970455;28;20185;-65
2023/10/04 05:05:42;;;;;;;9.83;3.30;;;10.10;99.90;;;;;;4979410;28;20204;-64
2023/10/04 05:08:08;;;;;;;11.23;3.60;;;10.20;99.90;;;;;;4978877;28;20197;-65
2023/10/04 05:10:38;;;;;;;10.63;3.53;;;10.20;99.90;;;;;;4970907;28;20673;-65
2023/10/04 05:13:07;;;;;;;14.37;4.00;;;10.20;99.90;;;;;;4970883;28;20702;-65
2023/10/04 05:15:36;;;;;;;12.17;4.90;;;10.20;99.90;;;;;;4971372;28;20197;-64
2023/10/04 05:18:06;;;;;;;10.57;3.90;;;10.20;99.90;;;;;;4970818;28;20676;-64
2023/10/04 05:20:32;;;;;;;6.57;3.50;;;10.20;99.90;;;;;;4968075;28;20273;-64
2023/10/04 05:23:01;;;;;;;8.90;3.10;;;10.30;99.90;;;;;;4973234;28;20261;-65
2023/10/04 05:25:27;;;;;;;8.80;3.17;;;10.30;99.90;;;;;;4974797;28;20209;-65
2023/10/04 05:28:00;;;;;;;8.30;3.30;;;10.30;99.90;;;;;;4970401;28;20684;-66
2023/10/04 05:30:26;;;;;;;8.67;3.20;;;10.30;99.90;;;;;;4974085;28;20197;-65
2023/10/04 05:32:51;;;;;;;8.93;3.50;;;10.20;99.90;;;;;;4974675;28;20194;-64
2023/10/04 05:35:18;;;;;;;26.13;11.27;;;10.30;99.90;;;;;;4974646;28;20205;-64
2023/10/04 05:37:44;;;;;;;9.57;4.90;;;10.30;99.90;;;;;;4974513;28;20206;-65
2023/10/04 05:40:23;;;;;;;9.50;3.60;;;10.40;99.90;;;;;;4974028;28;20267;-64
2023/10/04 05:42:49;;;;;;;10.17;3.60;;;10.40;99.90;;;;;;4974507;28;20193;-65
2023/10/04 05:45:14;;;;;;;11.73;3.50;;;10.40;99.90;;;;;;4974246;28;20263;-64
2023/10/04 05:47:40;;;;;;;10.83;4.07;;;10.40;99.90;;;;;;4974427;28;20665;-65
2023/10/04 05:50:17;;;;;;;24.70;7.67;;;10.40;99.90;;;;;;4973308;28;20193;-65
2023/10/04 05:52:43;;;;;;;13.03;5.00;;;10.40;99.90;;;;;;4973283;28;20501;-66
2023/10/04 05:55:10;;;;;;;12.57;4.00;;;10.40;99.90;;;;;;4973076;28;20689;-64
2023/10/04 05:57:36;;;;;;;8.57;3.57;;;10.50;99.90;;;;;;4973255;28;20349;-65
2023/10/04 06:00:22;;;;;;;13.73;3.57;;;10.50;99.90;;;;;;4972913;28;20341;-64
2023/10/04 06:02:49;;;;;;;7.23;2.80;;;10.50;99.90;;;;;;4981548;28;20177;-66
2023/10/04 06:05:16;;;;;;;7.90;3.20;;;10.50;99.90;;;;;;4973273;28;20200;-64
2023/10/04 06:07:42;;;;;;;10.00;3.30;;;10.50;99.90;;;;;;4973349;28;20178;-65
2023/10/04 06:10:10;;;;;;;11.33;3.97;;;10.50;99.90;;;;;;4972966;28;20211;-65
2023/10/04 06:12:37;;;;;;;19.77;4.73;;;10.50;99.90;;;;;;4971943;28;20269;-64
2023/10/04 06:15:04;;;;;;;10.90;4.67;;;10.50;99.90;;;;;;4970180;28;20265;-65
2023/10/04 06:17:31;;;;;;;14.70;4.40;;;10.60;99.90;;;;;;4973051;28;20212;-65
2023/10/04 06:19:57;;;;;;;8.90;4.10;;;10.70;99.90;;;;;;4972612;28;20206;-65
2023/10/04 06:22:22;;;;;;;11.33;4.17;;;10.80;99.90;;;;;;4973215;28;20606;-65
2023/10/04 06:24:49;;;;;;;7.60;4.10;;;10.80;99.90;;;;;;4973074;28;20755;-65
2023/10/04 06:27:15;;;;;;;12.53;4.23;;;10.80;99.90;;;;;;4973175;28;20650;-65
2023/10/04 06:29:41;;;;;;;7.73;3.70;;;10.90;99.90;;;;;;4980549;28;20209;-65
2023/10/04 06:32:07;;;;;;;9.47;3.67;;;11.00;99.90;;;;;;4971597;28;20193;-66
2023/10/04 06:34:32;;;;;;;6.90;3.57;;;11.10;99.90;;;;;;4972565;28;20689;-65
2023/10/04 06:36:58;;;;;;;14.67;3.80;;;11.20;99.90;;;;;;4972655;28;20647;-65
2023/10/04 06:39:23;;;;;;;8.90;4.07;;;11.30;99.90;;;;;;4972469;28;20209;-65
2023/10/04 06:41:49;;;;;;;11.17;4.37;;;11.40;99.90;;;;;;4972870;28;20181;-64
2023/10/04 06:44:14;;;;;;;9.80;4.20;;;11.40;99.90;;;;;;4972640;28;20700;-65
2023/10/04 06:46:40;;;;;;;14.50;4.50;;;11.50;99.90;;;;;;4972990;28;20644;-65
2023/10/04 06:49:06;;;;;;;16.27;4.30;;;11.50;99.90;;;;;;4972109;28;20197;-65
2023/10/04 06:51:31;;;;;;;8.47;4.00;;;11.60;99.90;;;;;;4972273;28;20683;-66
2023/10/04 06:53:58;;;;;;;7.97;3.80;;;11.60;99.90;;;;;;4972595;28;20673;-65
2023/10/04 06:56:24;;;;;;;12.87;5.43;;;11.70;99.90;;;;;;4972672;28;20190;-65
2023/10/04 06:58:50;;;;;;;11.37;4.83;;;11.80;99.90;;;;;;4971964;28;20201;-65
2023/10/04 07:01:16;;;;;;;12.47;5.00;;;11.80;99.90;;;;;;4972722;28;20309;-65
2023/10/04 07:03:43;;;;;;;9.33;4.50;;;11.80;99.90;;;;;;4972643;28;20288;-65
2023/10/04 07:06:09;;;;;;;10.50;3.97;;;11.90;99.90;;;;;;4972514;28;20731;-65
2023/10/04 07:08:35;;;;;;;14.10;4.10;;;12.00;99.90;;;;;;4971889;28;20656;-65
2023/10/04 07:11:03;;;;;;;11.93;4.03;;;12.10;99.90;;;;;;4971885;28;20581;-64
2023/10/04 07:13:32;;;;;;;8.47;3.80;;;12.20;99.90;;;;;;4972232;28;20174;-65
2023/10/04 07:15:58;;;;;;;9.80;4.07;;;12.20;99.90;;;;;;4971982;28;20194;-66
2023/10/04 07:18:24;;;;;;;7.37;3.90;;;12.30;99.90;;;;;;4971644;28;20629;-66
2023/10/04 07:20:50;;;;;;;8.03;3.57;;;12.40;99.90;;;;;;4968132;28;20229;-65
2023/10/04 07:23:16;;;;;;;10.63;3.97;;;12.50;99.90;;;;;;4972058;28;20174;-66
2023/10/04 07:25:44;;;;;;;14.20;3.57;;;12.60;99.90;;;;;;4972242;28;20209;-65
2023/10/04 07:28:09;;;;;;;14.97;3.30;;;12.60;99.90;;;;;;4971705;28;20209;-64
2023/10/04 07:30:35;;;;;;;9.13;2.97;;;12.60;99.90;;;;;;4971670;28;20267;-65
2023/10/04 07:33:02;;;;;;;14.38;3.42;;;12.70;99.90;;;;;;4979247;28;20418;-66
2023/10/04 07:35:28;;;;;;;9.83;3.10;;;12.90;99.90;;;;;;4972159;28;20193;-65
2023/10/04 07:37:55;;;;;;;11.90;3.37;;;13.00;99.90;;;;;;4970238;28;20216;-65
2023/10/04 07:40:23;;;;;;;11.47;3.23;;;13.00;99.90;;;;;;4971440;28;20181;-66
2023/10/04 07:42:52;;;;;;;11.07;3.23;;;13.10;99.90;;;;;;4971721;28;20268;-64
2023/10/04 07:45:19;;;;;;;12.77;2.47;;;13.20;99.90;;;;;;4971889;28;20307;-66
2023/10/04 07:47:45;;;;;;;8.70;2.70;;;13.30;99.90;;;;;;4971435;28;20197;-65
2023/10/04 07:50:18;;;;;;;16.93;2.77;;;13.30;99.90;;;;;;4969731;28;20213;-65
2023/10/04 07:52:44;;;;;;;12.67;2.80;;;13.40;99.90;;;;;;4979711;28;20189;-65
2023/10/04 07:55:22;;;;;;;9.53;2.33;;;13.40;99.90;;;;;;4971491;28;20268;-65
2023/10/04 07:57:50;;;;;;;8.33;3.00;;;13.50;99.90;;;;;;4971157;28;20225;-66
2023/10/04 08:00:17;;;;;;;12.10;2.70;;;13.50;99.90;;;;;;4971049;28;20651;-65
2023/10/04 08:02:51;;;;;;;14.57;3.20;;;13.60;99.90;;;;;;4971571;28;20244;-66
2023/10/04 08:05:18;;;;;;;8.47;2.70;;;13.70;99.90;;;;;;4970424;28;20200;-66
2023/10/04 08:07:48;;;;;;;10.47;2.80;;;13.80;99.90;;;;;;4969928;28;20265;-65
2023/10/04 08:10:14;;;;;;;11.90;2.90;;;13.90;99.90;;;;;;4970380;28;20182;-65
2023/10/04 08:12:42;;;;;;;20.97;3.27;;;14.00;99.90;;;;;;4971440;28;20182;-64
2023/10/04 08:15:09;;;;;;;12.33;3.10;;;14.10;99.90;;;;;;4971557;28;20209;-65
2023/10/04 08:17:34;;;;;;;18.10;3.00;;;14.20;99.90;;;;;;4971000;28;20219;-66
2023/10/04 08:20:01;;;;;;;10.60;2.87;;;14.20;99.90;;;;;;4970564;28;20756;-65
2023/10/04 08:22:28;;;;;;;10.33;2.70;;;14.10;99.90;;;;;;4971225;28;20170;-65
2023/10/04 08:24:54;;;;;;;8.40;3.17;;;14.10;99.90;;;;;;4971442;28;20205;-66
2023/10/04 08:27:20;;;;;;;12.87;4.10;;;14.10;99.90;;;;;;4970753;28;20764;-65
2023/10/04 08:29:45;;;;;;;11.57;2.90;;;14.10;99.90;;;;;;4970380;28;20189;-65
2023/10/04 08:32:11;;;;;;;8.77;3.03;;;14.10;99.90;;;;;;4970883;28;20220;-65
2023/10/04 08:34:37;;;;;;;15.83;2.73;;;14.10;99.90;;;;;;4971063;28;20213;-65
2023/10/04 08:37:03;;;;;;;13.03;2.83;;;14.00;99.90;;;;;;4970574;28;20233;-65
2023/10/04 08:39:29;;;;;;;6.70;2.63;;;14.10;99.90;;;;;;4970305;28;20216;-65
2023/10/04 08:41:55;;;;;;;17.47;2.93;;;14.00;99.90;;;;;;4970667;28;20491;-66
2023/10/04 08:44:21;;;;;;;12.70;3.30;;;14.00;99.90;;;;;;4970713;28;20330;-66
2023/10/04 08:46:47;;;;;;;9.40;3.13;;;14.20;99.90;;;;;;4970838;28;20223;-64
2023/10/04 08:49:15;;;;;;;15.27;3.07;;;14.50;99.90;;;;;;4969943;28;20190;-65
2023/10/04 08:51:45;;;;;;;13.57;2.90;;;14.90;99.90;;;;;;4966288;28;20182;-67
2023/10/04 08:54:13;;;;;;;11.20;2.60;;;15.30;99.90;;;;;;4969120;28;20198;-65
2023/10/04 08:56:48;;;;;;;13.73;2.83;;;15.60;99.90;;;;;;4970637;28;20170;-66
2023/10/04 08:59:14;;;;;;;11.53;2.50;;;15.80;99.90;;;;;;4970000;28;20177;-65
2023/10/04 09:01:41;;;;;;;11.13;3.10;;;15.70;99.90;;;;;;4971038;28;20174;-66
2023/10/04 09:04:07;;;;;;;10.63;2.53;;;15.90;99.90;;;;;;4970535;28;20205;-66
2023/10/04 09:06:32;;;;;;;20.27;2.90;;;16.00;99.90;;;;;;4976227;28;20553;-66
2023/10/04 09:08:58;;;;;;;12.17;3.10;;;15.90;99.90;;;;;;4971168;28;20195;-64
2023/10/04 09:11:24;;;;;;;12.97;3.90;;;15.90;99.90;;;;;;4970477;28;20256;-64
2023/10/04 09:13:53;;;;;;;11.57;3.03;;;15.80;99.90;;;;;;4970338;28;20205;-66
2023/10/04 09:16:28;;;;;;;8.80;2.47;;;15.70;99.90;;;;;;4970343;28;20185;-65
2023/10/04 09:19:17;;;;;;;12.50;2.63;;;15.40;99.90;;;;;;4969485;28;20696;-66
2023/10/04 09:21:43;;;;;;;11.33;2.53;;;15.20;99.90;;;;;;4970330;28;20249;-65
2023/10/04 09:24:09;;;;;;;15.17;2.87;;;15.00;99.90;;;;;;4978280;28;20205;-66
2023/10/04 09:26:36;;;;;;;15.10;2.53;;;15.10;99.90;;;;;;4978229;28;20269;-66
2023/10/04 09:29:03;;;;;;;12.73;3.07;;;15.20;99.90;;;;;;4969574;28;20178;-65
2023/10/04 09:31:29;;;;;;;10.07;2.30;;;15.30;99.90;;;;;;4970551;28;20189;-65
2023/10/04 09:33:57;;;;;;;16.10;3.33;;;15.50;99.90;;;;;;4969927;28;20611;-65
2023/10/04 09:36:33;;;;;;;12.73;2.37;;;15.60;99.90;;;;;;4970231;28;20201;-65
2023/10/04 09:39:09;;;;;;;12.50;3.13;;;15.60;99.90;;;;;;4969483;28;20658;-65
2023/10/04 09:41:42;;;;;;;12.23;2.63;;;15.30;99.90;;;;;;4970617;28;20202;-66
2023/10/04 09:44:25;;;;;;;11.23;2.80;;;15.30;99.90;;;;;;4968906;28;20320;-66
2023/10/04 09:47:09;;;;;;;13.87;2.97;;;15.50;99.90;;;;;;4965572;28;20569;-67
2023/10/04 09:49:36;;;;;;;12.07;2.83;;;16.40;99.90;;;;;;4969426;28;20185;-67
2023/10/04 09:52:12;;;;;;;11.27;2.90;;;17.30;99.90;;;;;;4969872;28;20204;-67
2023/10/04 09:54:38;;;;;;;7.97;2.60;;;17.40;99.90;;;;;;4970184;28;20248;-66
2023/10/04 09:57:09;;;;;;;20.60;2.67;;;17.40;99.90;;;;;;4969679;28;20577;-67
2023/10/04 09:59:37;;;;;;;8.83;2.60;;;17.20;99.90;;;;;;4969625;28;20181;-67
2023/10/04 10:02:05;;;;;;;9.37;2.97;;;17.10;99.90;;;;;;4969961;28;20234;-67
2023/10/04 10:04:36;;;;;;;14.47;2.93;;;17.00;99.90;;;;;;4969682;28;20202;-68
2023/10/04 10:07:15;;;;;;;12.57;3.47;;;17.00;99.90;;;;;;4980234;28;20194;-67
2023/10/04 10:10:13;;;;;;;9.77;2.93;;;17.10;99.90;;;;;;4973099;28;20186;-67
2023/10/04 10:12:39;;;;;;;11.80;2.70;;;17.20;99.90;;;;;;4978629;28;20673;-67
2023/10/04 10:15:07;;;;;;;10.13;2.33;;;17.20;99.90;;;;;;4972656;28;20272;-67
2023/10/04 10:17:34;;;;;;;8.13;2.30;;;17.80;99.90;;;;;;4972786;28;20677;-67
2023/10/04 10:20:01;;;;;;;11.60;2.63;;;18.40;99.90;;;;;;4972422;28;20182;-67
2023/10/04 10:22:27;;;;;;;15.07;2.60;;;18.50;99.90;;;;;;4973061;28;20186;-67
2023/10/04 10:24:55;;;;;;;13.20;2.60;;;18.30;99.90;;;;;;4972769;28;20652;-67
2023/10/04 10:27:23;;;;;;;7.93;2.53;;;18.30;99.90;;;;;;4965369;28;20196;-67
2023/10/04 10:29:53;;;;;;;9.67;2.40;;;18.30;99.90;;;;;;4972154;28;20326;-67
2023/10/04 10:32:22;;;;;;;8.30;2.47;;;18.80;99.90;;;;;;4972606;28;20193;-67
2023/10/04 10:34:57;;;;;;;10.47;2.50;;;19.20;99.90;;;;;;4972612;28;20206;-67
2023/10/04 10:37:24;;;;;;;11.93;2.70;;;19.40;99.90;;;;;;4972718;28;20201;-67
2023/10/04 10:39:55;;;;;;;11.53;2.53;;;19.90;99.90;;;;;;4972314;28;20181;-67
2023/10/04 10:42:22;;;;;;;11.93;2.60;;;19.70;99.90;;;;;;4965064;28;20182;-67
2023/10/04 10:44:49;;;;;;;11.90;2.50;;;19.20;99.90;;;;;;4972240;28;20225;-67
2023/10/04 10:47:25;;;;;;;9.47;2.47;;;18.70;99.90;;;;;;4972316;28;20198;-67
2023/10/04 10:50:12;;;;;;;10.63;2.57;;;18.40;99.90;;;;;;4971914;28;20244;-66
2023/10/04 10:52:38;;;;;;;7.77;2.30;;;18.10;99.90;;;;;;4966785;28;20250;-66
2023/10/04 10:55:06;;;;;;;11.77;2.60;;;17.80;99.90;;;;;;4972374;28;20310;-67
2023/10/04 10:57:36;;;;;;;8.50;2.70;;;17.60;99.90;;;;;;4972337;28;20213;-67
2023/10/04 11:00:23;;;;;;;17.50;2.90;;;17.50;99.90;;;;;;4971732;28;20213;-67
2023/10/04 11:02:53;;;;;;;10.03;2.80;;;17.50;99.90;;;;;;4971817;28;20185;-65
2023/10/04 11:05:20;;;;;;;9.77;2.13;;;17.40;99.90;;;;;;4969319;28;20205;-67
2023/10/04 11:07:47;;;;;;;14.97;2.70;;;17.40;99.90;;;;;;4971227;28;20585;-65
2023/10/04 11:10:19;;;;;;;11.33;3.17;;;17.40;99.90;;;;;;4970909;28;20186;-66
2023/10/04 11:12:46;;;;;;;11.60;2.80;;;17.40;99.90;;;;;;4971999;28;20217;-65
2023/10/04 11:15:13;;;;;;;12.10;2.70;;;17.60;99.90;;;;;;4971953;28;20244;-67
2023/10/04 11:17:39;;;;;;;5.90;2.47;;;17.60;99.90;;;;;;4969887;28;20210;-64
2023/10/04 11:20:09;;;;;;;5.57;1.93;;;17.80;99.90;;;;;;4971087;28;20325;-65
2023/10/04 11:22:37;;;;;;;10.73;2.67;;;17.70;99.90;;;;;;4971966;28;20178;-65
2023/10/04 11:25:04;;;;;;;6.50;2.37;;;17.70;99.90;;;;;;4971843;28;20855;-64
2023/10/04 11:27:31;;;;;;;9.23;2.30;;;17.80;99.90;;;;;;4971734;28;20186;-65
2023/10/04 11:29:57;;;;;;;12.20;2.77;;;17.90;99.90;;;;;;4971057;28;20332;-66
2023/10/04 11:32:23;;;;;;;8.43;2.77;;;18.00;99.90;;;;;;4971354;28;20276;-64
2023/10/04 11:34:49;;;;;;;12.23;3.80;;;17.90;99.90;;;;;;4971761;28;20209;-64
2023/10/04 11:37:15;;;;;;;8.73;2.90;;;17.90;99.90;;;;;;4974459;28;22449;-65
2023/10/04 11:39:44;;;;;;;10.20;3.93;;;18.00;99.90;;;;;;4976064;28;20182;-65
2023/10/04 11:42:21;;;;;;;9.70;2.93;;;18.00;99.90;;;;;;4971570;28;20212;-65
2023/10/04 11:44:47;;;;;;;11.60;3.30;;;18.10;99.90;;;;;;4971312;28;20625;-64
2023/10/04 11:47:15;;;;;;;9.47;3.00;;;18.00;99.90;;;;;;4971337;28;20245;-64
2023/10/04 11:49:54;;;;;;;10.07;2.83;;;18.10;99.90;;;;;;4970647;28;20180;-64
2023/10/04 11:52:21;;;;;;;10.10;2.60;;;18.20;99.90;;;;;;4971413;28;20192;-65
2023/10/04 11:54:48;;;;;;;9.40;2.37;;;18.20;99.90;;;;;;4971532;28;20206;-64
2023/10/04 11:57:31;;;;;;;9.37;2.90;;;18.20;99.90;;;;;;4971302;28;20236;-65
2023/10/04 11:59:57;;;;;;;8.33;2.33;;;18.40;99.90;;;;;;4970553;28;20188;-65
2023/10/04 12:02:25;;;;;;;8.60;2.50;;;18.50;99.90;;;;;;4970218;28;20184;-65
2023/10/04 12:04:51;;;;;;;7.30;2.50;;;18.60;99.90;;;;;;4971253;28;20288;-65
2023/10/04 12:07:17;;;;;;;9.10;2.47;;;18.80;99.90;;;;;;4971028;28;20249;-67
2023/10/04 12:09:43;;;;;;;5.50;2.30;;;19.00;99.90;;;;;;4970336;28;20190;-65
2023/10/04 12:12:09;;;;;;;7.07;2.53;;;19.20;99.90;;;;;;4972750;28;20248;-65
2023/10/04 12:14:34;;;;;;;8.73;2.67;;;19.20;99.90;;;;;;4977363;28;20264;-65
2023/10/04 12:17:04;;;;;;;6.47;2.27;;;19.20;99.90;;;;;;4971086;28;20221;-65
2023/10/04 12:19:34;;;;;;;9.63;2.60;;;19.40;99.90;;;;;;4976714;28;20212;-65
2023/10/04 12:22:11;;;;;;;9.23;2.83;;;19.60;99.90;;;;;;4971389;28;20178;-65
2023/10/04 12:24:38;;;;;;;12.47;3.60;;;19.70;99.90;;;;;;4976937;28;20289;-64
2023/10/04 12:27:08;;;;;;;9.03;2.53;;;19.90;99.90;;;;;;4970794;28;20201;-65
2023/10/04 12:29:36;;;;;;;7.60;2.90;;;20.10;99.90;;;;;;4968641;28;20221;-65
2023/10/04 12:32:02;;;;;;;12.63;3.07;;;20.30;99.90;;;;;;4970723;28;20511;-65
2023/10/04 12:34:29;;;;;;;8.90;3.10;;;20.30;99.90;;;;;;4970879;28;20723;-66
2023/10/04 12:36:55;;;;;;;8.30;3.17;;;20.20;99.90;;;;;;4970603;28;20282;-65
2023/10/04 12:39:21;;;;;;;37.17;4.07;;;20.00;99.90;;;;;;4969917;28;20721;-65
2023/10/04 12:41:49;;;;;;;9.67;2.80;;;19.60;99.90;;;;;;4978694;28;20676;-64
2023/10/04 12:44:18;;;;;;;12.30;3.23;;;19.40;99.90;;;;;;4970207;28;20221;-65
2023/10/04 12:46:47;;;;;;;12.10;3.23;;;19.40;99.90;;;;;;4970379;28;20206;-65
2023/10/04 12:49:15;;;;;;;8.70;3.00;;;19.50;99.90;;;;;;4969801;28;20189;-66
2023/10/04 12:51:41;;;;;;;10.47;2.97;;;19.50;99.90;;;;;;4970649;28;20177;-64
2023/10/04 12:54:09;;;;;;;12.93;3.37;;;19.50;99.90;;;;;;4967314;28;20261;-65